createdAt,value
2019-01-22T00:00:48.417Z,67.33
2019-01-22T00:03:15.248Z,68.36
2019-01-22T00:05:41.979Z,68.26
2019-01-22T00:08:08.791Z,67.82
2019-01-22T00:10:35.761Z,68.56
2019-01-22T00:13:03.142Z,67.95
2019-01-22T00:15:29.876Z,67.95
2019-01-22T00:17:56.732Z,67.75
2019-01-22T00:20:23.512Z,67.62
2019-01-22T00:22:50.276Z,67.27
2019-01-22T00:25:17.130Z,67.72
2019-01-22T00:27:43.896Z,67.30
2019-01-22T00:30:13.611Z,67.78
2019-01-22T00:32:40.430Z,67.33
2019-01-22T00:35:07.366Z,67.31
2019-01-22T00:37:34.278Z,67.90
2019-01-22T00:40:01.035Z,69.36
2019-01-22T00:42:27.765Z,69.19
2019-01-22T00:44:54.515Z,69.82
2019-01-22T00:47:21.233Z,68.80
2019-01-22T00:49:48.043Z,68.21
2019-01-22T00:52:14.917Z,67.62
2019-01-22T00:54:41.687Z,67.43
2019-01-22T00:57:08.419Z,67.02
2019-01-22T00:59:35.159Z,66.86
2019-01-22T01:02:02.399Z,67.47
2019-01-22T01:04:29.242Z,68.22
2019-01-22T01:06:56.033Z,67.61
2019-01-22T01:09:25.217Z,67.09
2019-01-22T01:11:51.998Z,67.72
2019-01-22T01:14:18.909Z,67.25
2019-01-22T01:16:45.753Z,67.33
2019-01-22T01:19:12.572Z,67.17
2019-01-22T01:21:39.827Z,66.88
2019-01-22T01:24:06.753Z,66.82
2019-01-22T01:26:33.490Z,66.38
2019-01-22T01:29:00.345Z,66.77
2019-01-22T01:31:27.108Z,67.09
2019-01-22T01:33:54.578Z,67.30
2019-01-22T01:36:21.728Z,67.90
2019-01-22T01:38:48.475Z,67.66
2019-01-22T01:41:15.671Z,68.02
2019-01-22T01:43:42.525Z,67.74
2019-01-22T01:46:09.298Z,67.75
2019-01-22T01:48:36.081Z,67.02
2019-01-22T01:51:02.883Z,66.94
2019-01-22T01:53:29.665Z,67.21
2019-01-22T01:55:56.452Z,66.46
2019-01-22T01:58:23.381Z,66.33
2019-01-22T02:00:50.163Z,65.91
2019-01-22T02:03:16.953Z,66.37
2019-01-22T02:05:43.737Z,66.96
2019-01-22T02:08:10.970Z,66.53
2019-01-22T02:10:38.609Z,66.00
2019-01-22T02:13:21.903Z,65.54
2019-01-22T02:16:26.802Z,65.67
2019-01-22T02:19:07.568Z,66.01
2019-01-22T02:22:16.955Z,65.65
2019-01-22T02:25:08.201Z,65.26
2019-01-22T02:28:29.657Z,65.52
2019-01-22T02:31:32.425Z,65.56
2019-01-22T02:34:30.960Z,65.49
2019-01-22T02:37:48.394Z,65.27
2019-01-22T02:40:22.162Z,65.94
2019-01-22T02:43:30.722Z,65.39
2019-01-22T02:46:35.664Z,65.25
2019-01-22T02:49:31.987Z,65.94
2019-01-22T02:52:42.757Z,66.02
2019-01-22T02:55:27.208Z,65.80
2019-01-22T02:58:24.078Z,64.88
2019-01-22T03:01:22.023Z,65.54
2019-01-22T03:04:24.665Z,65.65
2019-01-22T03:07:20.139Z,66.02
2019-01-22T03:09:55.561Z,66.21
2019-01-22T03:13:00.523Z,65.96
2019-01-22T03:15:54.874Z,66.18
2019-01-22T03:18:58.174Z,65.91
2019-01-22T03:22:00.282Z,66.16
2019-01-22T03:24:59.523Z,65.94
2019-01-22T03:28:32.745Z,67.29
2019-01-22T03:31:21.024Z,67.77
2019-01-22T03:34:38.927Z,68.15
2019-01-22T03:37:48.192Z,67.60
2019-01-22T03:40:52.878Z,67.42
2019-01-22T03:43:55.358Z,67.19
2019-01-22T03:46:54.982Z,67.83
2019-01-22T03:49:30.796Z,66.75
2019-01-22T03:52:50.869Z,66.19
2019-01-22T03:56:04.429Z,65.15
2019-01-22T03:58:31.149Z,65.76
2019-01-22T04:01:20.409Z,65.76
2019-01-22T04:03:47.380Z,65.58
2019-01-22T04:06:33.983Z,66.16
2019-01-22T04:09:08.348Z,66.09
2019-01-22T04:11:43.349Z,67.11
2019-01-22T04:14:10.216Z,66.91
2019-01-22T04:16:36.996Z,66.47
2019-01-22T04:19:03.841Z,65.85
2019-01-22T04:21:38.206Z,66.37
2019-01-22T04:24:22.631Z,66.89
2019-01-22T04:27:06.164Z,66.16
2019-01-22T04:30:17.442Z,66.09
2019-01-22T04:33:35.751Z,66.25
2019-01-22T04:36:39.639Z,66.01
2019-01-22T04:39:48.906Z,64.69
2019-01-22T04:42:38.098Z,63.71
2019-01-22T04:45:53.754Z,64.33
2019-01-22T04:49:21.033Z,64.54
2019-01-22T04:52:21.919Z,65.39
2019-01-22T04:55:44.138Z,65.63
2019-01-22T04:58:39.108Z,65.78
2019-01-22T05:01:46.704Z,65.31
2019-01-22T05:04:56.765Z,65.61
2019-01-22T05:07:35.691Z,66.15
2019-01-22T05:10:56.087Z,65.69
2019-01-22T05:14:03.715Z,65.58
2019-01-22T05:17:21.768Z,65.71
2019-01-22T05:20:23.360Z,65.68
2019-01-22T05:23:49.845Z,65.63
2019-01-22T05:26:54.815Z,66.52
2019-01-22T05:30:06.399Z,67.01
2019-01-22T05:32:51.321Z,67.31
2019-01-22T05:35:46.234Z,67.18
2019-01-22T05:38:40.188Z,67.60
2019-01-22T05:41:46.481Z,67.58
2019-01-22T05:44:43.454Z,67.95
2019-01-22T05:47:48.569Z,67.79
2019-01-22T05:51:18.517Z,67.96
2019-01-22T05:54:26.107Z,68.01
2019-01-22T05:57:28.261Z,67.79
2019-01-22T06:00:21.710Z,68.79
2019-01-22T06:03:19.603Z,69.06
2019-01-22T06:06:40.455Z,68.49
2019-01-22T06:09:51.639Z,68.26
2019-01-22T06:12:58.154Z,68.48
2019-01-22T06:16:25.219Z,68.49
2019-01-22T06:19:19.751Z,67.91
2019-01-22T06:22:17.456Z,68.37
2019-01-22T06:25:24.355Z,70.08
2019-01-22T06:28:10.325Z,70.10
2019-01-22T06:30:56.608Z,69.81
2019-01-22T06:34:07.108Z,69.92
2019-01-22T06:36:52.992Z,70.21
2019-01-22T06:40:01.807Z,71.37
2019-01-22T06:42:59.819Z,73.24
2019-01-22T06:45:47.998Z,73.00
2019-01-22T06:48:47.211Z,73.84
2019-01-22T06:51:25.577Z,74.08
2019-01-22T06:54:17.802Z,73.94
2019-01-22T06:56:55.959Z,73.78
2019-01-22T07:00:01.575Z,74.21
2019-01-22T07:02:47.860Z,74.58
2019-01-22T07:05:42.226Z,74.42
2019-01-22T07:08:45.295Z,74.17
2019-01-22T07:11:50.258Z,74.98
2019-01-22T07:14:38.089Z,74.90
2019-01-22T07:17:17.489Z,74.92
2019-01-22T07:20:05.133Z,75.68
2019-01-22T07:22:52.932Z,75.77
2019-01-22T07:25:41.547Z,74.88
2019-01-22T07:28:50.784Z,74.79
2019-01-22T07:32:01.852Z,74.74
2019-01-22T07:34:59.616Z,75.30
2019-01-22T07:38:00.757Z,75.08
2019-01-22T07:41:07.925Z,75.12
2019-01-22T07:44:21.485Z,74.82
2019-01-22T07:47:18.229Z,74.74
2019-01-22T07:50:29.900Z,74.75
2019-01-22T07:53:25.183Z,74.82
2019-01-22T07:56:26.292Z,74.51
2019-01-22T07:59:24.087Z,73.89
2019-01-22T08:02:29.278Z,73.87
2019-01-22T08:05:13.199Z,73.89
2019-01-22T08:08:31.570Z,73.84
2019-01-22T08:11:43.184Z,73.22
2019-01-22T08:14:33.153Z,73.17
2019-01-22T08:17:28.639Z,73.33
2019-01-22T08:20:48.864Z,73.28
2019-01-22T08:23:37.953Z,73.13
2019-01-22T08:26:36.753Z,72.52
2019-01-22T08:29:49.763Z,72.59
2019-01-22T08:33:11.764Z,72.16
2019-01-22T08:36:20.628Z,72.64
2019-01-22T08:39:01.197Z,73.35
2019-01-22T08:42:02.417Z,73.07
2019-01-22T08:44:57.946Z,72.87
2019-01-22T08:48:12.122Z,72.24
2019-01-22T08:50:57.761Z,71.91
2019-01-22T08:53:47.333Z,72.16
2019-01-22T08:56:35.491Z,72.33
2019-01-22T08:59:19.322Z,72.48
2019-01-22T09:02:26.926Z,71.82
2019-01-22T09:05:15.174Z,71.31
2019-01-22T09:08:17.747Z,71.06
2019-01-22T09:11:15.507Z,70.77
2019-01-22T09:14:17.350Z,70.75
2019-01-22T09:17:14.450Z,71.20
2019-01-22T09:20:19.269Z,71.59
2019-01-22T09:23:41.307Z,70.67
2019-01-22T09:26:30.293Z,71.38
2019-01-22T09:29:51.056Z,71.02
2019-01-22T09:32:51.285Z,70.45
2019-01-22T09:35:40.791Z,69.94
2019-01-22T09:38:10.410Z,70.08
2019-01-22T09:40:38.247Z,69.89
2019-01-22T09:43:06.122Z,70.29
2019-01-22T09:45:33.047Z,70.62
2019-01-22T09:47:59.792Z,70.52
2019-01-22T09:50:26.541Z,69.74
2019-01-22T09:52:53.300Z,69.57
2019-01-22T09:55:24.257Z,69.90
2019-01-22T09:57:51.914Z,69.94
2019-01-22T10:00:18.839Z,70.01
2019-01-22T10:02:45.573Z,69.52
2019-01-22T10:05:12.764Z,70.03
2019-01-22T10:07:39.641Z,69.18
2019-01-22T10:10:11.586Z,69.50
2019-01-22T10:12:38.490Z,68.69
2019-01-22T10:15:06.580Z,68.82
2019-01-22T10:17:33.318Z,69.15
2019-01-22T10:20:00.332Z,69.64
2019-01-22T10:22:27.190Z,69.75
2019-01-22T10:24:54.029Z,69.20
2019-01-22T10:27:21.021Z,69.76
2019-01-22T10:29:50.208Z,70.51
2019-01-22T10:32:17.108Z,69.66
2019-01-22T10:34:44.466Z,69.66
2019-01-22T10:37:11.719Z,68.88
2019-01-22T10:39:38.453Z,69.17
2019-01-22T10:42:05.403Z,68.68
2019-01-22T10:44:32.132Z,68.77
2019-01-22T10:46:59.071Z,69.23
2019-01-22T10:49:26.034Z,69.43
2019-01-22T10:51:52.795Z,69.00
2019-01-22T10:54:19.671Z,68.61
2019-01-22T10:56:48.613Z,68.00
2019-01-22T10:59:15.606Z,68.46
2019-01-22T11:01:42.683Z,67.72
2019-01-22T11:04:11.166Z,68.13
2019-01-22T11:06:40.662Z,68.50
2019-01-22T11:09:07.409Z,68.48
2019-01-22T11:11:34.446Z,68.26
2019-01-22T11:14:01.313Z,67.09
2019-01-22T11:16:28.572Z,67.85
2019-01-22T11:18:55.524Z,68.02
2019-01-22T11:21:25.138Z,67.95
2019-01-22T11:23:55.038Z,67.40
2019-01-22T11:26:22.395Z,67.42
2019-01-22T11:28:49.235Z,67.69
2019-01-22T11:31:16.109Z,67.42
2019-01-22T11:33:43.282Z,67.77
2019-01-22T11:36:10.071Z,68.68
2019-01-22T11:38:37.004Z,68.78
2019-01-22T11:41:03.787Z,68.64
2019-01-22T11:43:30.527Z,68.44
2019-01-22T11:45:57.244Z,68.15
2019-01-22T11:48:24.334Z,67.30
2019-01-22T11:50:51.691Z,67.48
2019-01-22T11:53:21.108Z,67.08
2019-01-22T11:55:50.605Z,66.70
2019-01-22T11:58:16.704Z,66.91
2019-01-22T12:00:57.629Z,67.41
2019-01-22T12:03:24.511Z,67.09
2019-01-22T12:05:53.264Z,66.91
2019-01-22T12:08:20.368Z,66.92
2019-01-22T12:10:47.199Z,67.37
2019-01-22T12:13:14.280Z,66.89
2019-01-22T12:15:41.396Z,67.27
2019-01-22T12:18:08.391Z,67.71
2019-01-22T12:20:35.285Z,67.32
2019-01-22T12:23:05.117Z,67.29
2019-01-22T12:25:32.360Z,67.12
2019-01-22T12:27:59.320Z,67.12
2019-01-22T12:30:31.003Z,67.59
2019-01-22T12:33:01.288Z,67.08
2019-01-22T12:35:28.266Z,66.70
2019-01-22T12:37:56.701Z,66.43
2019-01-22T12:40:26.884Z,65.85
2019-01-22T12:42:55.471Z,66.44
2019-01-22T12:45:24.926Z,66.81
2019-01-22T12:47:51.865Z,67.12
2019-01-22T12:50:25.655Z,66.63
2019-01-22T12:52:48.933Z,66.32
2019-01-22T12:55:15.957Z,65.82
2019-01-22T12:57:43.334Z,65.64
2019-01-22T13:00:15.436Z,65.67
2019-01-22T13:02:42.428Z,65.38
2019-01-22T13:05:12.446Z,65.95
2019-01-22T13:07:39.539Z,66.88
2019-01-22T13:10:07.765Z,66.69
2019-01-22T13:12:37.245Z,67.55
2019-01-22T13:15:05.641Z,66.63
2019-01-22T13:17:32.417Z,66.27
2019-01-22T13:19:59.353Z,66.41
2019-01-22T13:22:26.411Z,66.35
2019-01-22T13:24:53.248Z,64.58
2019-01-22T13:27:20.120Z,64.46
2019-01-22T13:29:47.403Z,66.08
2019-01-22T13:32:16.170Z,66.20
2019-01-22T13:34:44.963Z,66.39
2019-01-22T13:37:11.945Z,66.21
2019-01-22T13:39:38.913Z,65.63
2019-01-22T13:42:05.903Z,65.60
2019-01-22T13:44:33.088Z,65.83
2019-01-22T13:46:59.986Z,65.58
2019-01-22T13:49:27.708Z,65.48
2019-01-22T13:51:57.615Z,64.50
2019-01-22T13:54:24.910Z,64.06
2019-01-22T13:56:51.659Z,64.09
2019-01-22T13:59:18.582Z,64.24
2019-01-22T14:01:45.947Z,64.59
2019-01-22T14:04:13.392Z,64.37
2019-01-22T14:06:42.891Z,64.56
2019-01-22T14:09:10.161Z,64.92
2019-01-22T14:11:37.033Z,64.54
2019-01-22T14:14:04.440Z,64.28
2019-01-22T14:16:31.164Z,64.58
2019-01-22T14:18:58.032Z,64.58
2019-01-22T14:21:25.097Z,63.58
2019-01-22T14:23:52.101Z,63.96
2019-01-22T14:26:25.395Z,63.30
2019-01-22T14:28:48.129Z,64.91
2019-01-22T14:31:15.509Z,64.94
2019-01-22T14:33:42.403Z,64.68
2019-01-22T14:36:11.294Z,64.93
2019-01-22T14:38:38.212Z,64.36
2019-01-22T14:41:07.083Z,64.20
2019-01-22T14:43:35.984Z,63.56
2019-01-22T14:46:03.151Z,63.78
2019-01-22T14:48:30.128Z,62.97
2019-01-22T14:51:00.390Z,62.89
2019-01-22T14:53:27.776Z,63.75
2019-01-22T14:55:54.698Z,63.76
2019-01-22T14:58:22.947Z,63.42
2019-01-22T15:00:49.712Z,63.31
2019-01-22T15:03:16.736Z,63.53
2019-01-22T15:05:43.473Z,63.11
2019-01-22T15:08:10.439Z,62.86
2019-01-22T15:10:37.530Z,63.25
2019-01-22T15:13:04.507Z,62.43
2019-01-22T15:15:31.376Z,62.45
2019-01-22T15:17:58.663Z,63.14
2019-01-22T15:20:25.908Z,63.07
2019-01-22T15:22:53.008Z,62.75
2019-01-22T15:25:19.946Z,62.87
2019-01-22T15:27:46.960Z,63.24
2019-01-22T15:30:16.028Z,63.42
2019-01-22T15:32:44.773Z,63.31
2019-01-22T15:35:11.933Z,63.72
2019-01-22T15:37:38.778Z,63.04
2019-01-22T15:40:08.991Z,63.75
2019-01-22T15:42:38.324Z,63.90
2019-01-22T15:45:06.589Z,64.28
2019-01-22T15:47:33.661Z,64.28
2019-01-22T15:50:01.664Z,63.75
2019-01-22T15:52:28.511Z,63.89
2019-01-22T15:54:55.474Z,64.01
2019-01-22T15:57:22.207Z,63.48
2019-01-22T15:59:48.956Z,63.76
2019-01-22T16:02:15.788Z,63.67
2019-01-22T16:04:43.144Z,63.69
2019-01-22T16:07:09.943Z,63.94
2019-01-22T16:09:36.816Z,64.13
2019-01-22T16:12:04.987Z,65.19
2019-01-22T16:14:34.304Z,65.21
2019-01-22T16:17:01.278Z,65.17
2019-01-22T16:19:28.129Z,65.10
2019-01-22T16:21:54.890Z,64.81
2019-01-22T16:24:24.898Z,64.97
2019-01-22T16:26:53.518Z,64.84
2019-01-22T16:29:21.922Z,65.12
2019-01-22T16:31:48.793Z,64.85
2019-01-22T16:34:15.594Z,65.04
2019-01-22T16:36:42.336Z,64.88
2019-01-22T16:39:14.694Z,64.49
2019-01-22T16:41:41.649Z,63.50
2019-01-22T16:44:08.690Z,62.79
2019-01-22T16:46:37.997Z,63.14
2019-01-22T16:49:04.944Z,63.39
2019-01-22T16:51:31.764Z,63.96
2019-01-22T16:53:58.665Z,63.59
2019-01-22T16:56:25.758Z,64.20
2019-01-22T16:58:52.584Z,64.79
2019-01-22T17:01:19.553Z,65.08
2019-01-22T17:03:46.433Z,65.63
2019-01-22T17:06:14.012Z,65.12
2019-01-22T17:08:40.949Z,64.88
2019-01-22T17:11:07.739Z,65.16
2019-01-22T17:13:34.490Z,65.38
2019-01-22T17:16:01.479Z,64.21
2019-01-22T17:18:28.687Z,64.42
2019-01-22T17:20:55.851Z,64.53
2019-01-22T17:23:25.638Z,64.27
2019-01-22T17:25:53.348Z,64.73
2019-01-22T17:28:20.442Z,64.69
2019-01-22T17:30:48.098Z,64.83
2019-01-22T17:33:36.283Z,65.02
2019-01-22T17:36:03.343Z,65.47
2019-01-22T17:38:30.308Z,64.19
2019-01-22T17:40:57.175Z,64.73
2019-01-22T17:43:24.038Z,65.37
2019-01-22T17:45:50.783Z,64.80
2019-01-22T17:48:18.781Z,64.63
2019-01-22T17:50:45.707Z,63.93
2019-01-22T17:53:12.765Z,64.20
2019-01-22T17:55:39.964Z,64.52
2019-01-22T17:58:06.892Z,64.78
2019-01-22T18:00:35.219Z,64.39
2019-01-22T18:03:02.164Z,65.16
2019-01-22T18:05:29.029Z,65.48
2019-01-22T18:08:04.528Z,65.63
2019-01-22T18:10:31.990Z,65.06
2019-01-22T18:12:58.897Z,65.24
2019-01-22T18:15:25.690Z,65.27
2019-01-22T18:17:52.864Z,64.35
2019-01-22T18:20:20.871Z,64.35
2019-01-22T18:22:52.668Z,64.63
2019-01-22T18:25:23.863Z,64.90
2019-01-22T18:27:50.733Z,64.76
2019-01-22T18:30:20.618Z,64.42
2019-01-22T18:32:47.378Z,64.27
2019-01-22T18:35:22.804Z,64.02
2019-01-22T18:37:51.617Z,64.16
2019-01-22T18:40:18.399Z,64.62
2019-01-22T18:42:45.345Z,65.34
2019-01-22T18:45:13.991Z,65.31
2019-01-22T18:47:40.727Z,64.84
2019-01-22T18:50:12.741Z,65.47
2019-01-22T18:52:39.909Z,65.31
2019-01-22T18:55:07.672Z,65.36
2019-01-22T18:57:34.448Z,64.86
2019-01-22T19:00:01.444Z,64.46
2019-01-22T19:02:28.376Z,64.80
2019-01-22T19:04:55.559Z,64.76
2019-01-22T19:07:23.061Z,64.87
2019-01-22T19:09:50.665Z,64.69
2019-01-22T19:12:18.031Z,64.38
2019-01-22T19:14:45.199Z,64.36
2019-01-22T19:17:11.982Z,64.87
2019-01-22T19:19:38.833Z,64.41
2019-01-22T19:22:05.652Z,63.83
2019-01-22T19:24:33.749Z,64.33
2019-01-22T19:27:00.657Z,64.42
2019-01-22T19:29:27.530Z,64.84
2019-01-22T19:31:54.886Z,64.96
2019-01-22T19:34:21.647Z,65.05
2019-01-22T19:36:48.548Z,64.66
2019-01-22T19:39:15.445Z,63.51
2019-01-22T19:41:44.994Z,63.38
2019-01-22T19:44:11.743Z,63.06
2019-01-22T19:46:38.564Z,63.75
2019-01-22T19:49:05.498Z,64.35
2019-01-22T19:51:32.366Z,64.30
2019-01-22T19:53:59.117Z,64.45
2019-01-22T19:56:26.422Z,64.36
2019-01-22T19:58:53.348Z,64.46
2019-01-22T20:01:20.163Z,64.87
2019-01-22T20:03:47.382Z,64.69
2019-01-22T20:06:14.541Z,65.07
2019-01-22T20:08:41.438Z,65.46
2019-01-22T20:11:08.189Z,65.77
2019-01-22T20:13:35.159Z,65.47
2019-01-22T20:16:04.027Z,64.87
2019-01-22T20:18:30.783Z,64.94
2019-01-22T20:20:58.938Z,65.05
2019-01-22T20:23:25.881Z,65.07
2019-01-22T20:25:52.715Z,65.44
2019-01-22T20:28:19.706Z,64.68
2019-01-22T20:30:48.521Z,65.38
2019-01-22T20:33:15.976Z,65.22
2019-01-22T20:35:43.079Z,65.39
2019-01-22T20:38:10.140Z,65.26
2019-01-22T20:40:36.983Z,65.41
2019-01-22T20:43:04.499Z,65.64
2019-01-22T20:45:31.609Z,65.67
2019-01-22T20:47:58.371Z,65.83
2019-01-22T20:50:25.225Z,66.10
2019-01-22T20:52:52.228Z,66.48
2019-01-22T20:55:19.708Z,66.26
2019-01-22T20:57:46.525Z,66.30
2019-01-22T21:00:15.343Z,66.47
2019-01-22T21:02:42.704Z,66.42
2019-01-22T21:05:11.411Z,66.23
2019-01-22T21:07:38.216Z,66.04
2019-01-22T21:10:09.413Z,65.71
2019-01-22T21:12:36.308Z,65.65
2019-01-22T21:15:03.488Z,66.05
2019-01-22T21:17:30.368Z,66.15
2019-01-22T21:20:02.034Z,65.90
2019-01-22T21:22:25.816Z,66.01
2019-01-22T21:24:52.869Z,65.71
2019-01-22T21:27:19.790Z,65.55
2019-01-22T21:29:46.669Z,66.08
2019-01-22T21:32:13.593Z,66.14
2019-01-22T21:34:40.917Z,66.67
2019-01-22T21:37:08.191Z,66.72
2019-01-22T21:39:35.067Z,66.91
2019-01-22T21:42:01.939Z,66.49
2019-01-22T21:44:29.257Z,66.67
2019-01-22T21:46:57.300Z,66.53
2019-01-22T21:49:24.159Z,66.93
2019-01-22T21:51:50.955Z,67.29
2019-01-22T21:54:17.793Z,67.46
2019-01-22T21:56:45.705Z,67.20
2019-01-22T21:59:12.428Z,67.27
2019-01-22T22:01:39.293Z,67.34
2019-01-22T22:04:08.081Z,67.08
2019-01-22T22:06:35.189Z,66.87
2019-01-22T22:09:03.247Z,66.71
2019-01-22T22:11:30.181Z,66.88
2019-01-22T22:13:57.316Z,66.85
2019-01-22T22:16:24.770Z,66.88
2019-01-22T22:18:51.997Z,66.84
2019-01-22T22:21:18.856Z,66.51
2019-01-22T22:23:45.685Z,67.22
2019-01-22T22:26:12.454Z,66.92
2019-01-22T22:28:39.754Z,66.95
2019-01-22T22:31:06.928Z,66.73
2019-01-22T22:33:33.871Z,66.69
2019-01-22T22:36:01.020Z,66.81
2019-01-22T22:38:27.900Z,66.82
2019-01-22T22:40:54.883Z,66.57
2019-01-22T22:43:21.773Z,66.77
2019-01-22T22:45:48.739Z,66.74
2019-01-22T22:48:15.628Z,66.81
2019-01-22T22:50:45.605Z,66.53
2019-01-22T22:53:12.368Z,66.78
2019-01-22T22:55:39.213Z,66.74
2019-01-22T22:58:05.921Z,66.46
2019-01-22T23:00:48.286Z,66.90
2019-01-22T23:03:15.629Z,66.85
2019-01-22T23:05:42.381Z,66.75
2019-01-22T23:08:09.325Z,66.94
2019-01-22T23:10:36.107Z,67.35
2019-01-22T23:13:05.630Z,67.69
2019-01-22T23:15:32.410Z,67.62
2019-01-22T23:17:59.123Z,67.79
2019-01-22T23:20:25.877Z,67.46
2019-01-22T23:22:52.643Z,67.63
2019-01-22T23:25:19.354Z,67.48
2019-01-22T23:27:46.101Z,67.49
2019-01-22T23:30:13.114Z,67.36
2019-01-22T23:32:39.879Z,67.94
2019-01-22T23:35:06.756Z,68.06
2019-01-22T23:37:33.524Z,67.75
2019-01-22T23:40:00.264Z,67.58
2019-01-22T23:42:27.106Z,67.65
2019-01-22T23:44:53.865Z,67.77
2019-01-22T23:47:20.726Z,68.50
2019-01-22T23:49:47.490Z,68.48
2019-01-22T23:52:14.314Z,68.63
2019-01-22T23:54:41.037Z,68.83
2019-01-22T23:57:08.024Z,68.32
2019-01-22T23:59:34.798Z,68.53
